Dzherzhinskoe, Russia
Current Conditions -  °F | °C
As of 5:00 PM on Monday 26 Jan 2015 (Local Time) from UNKL Reporting Station
Clear Clear  
Wind Chill: -13°   Ceiling: Unl
Heat Index: -13°   Visibility: 6mi
Dew Point: -20°   Wind: 0mph
Humidity: 70%   Direction: NA
Pressure: 30.68"   Gusts: NA
Location:  56.85°N, 95.22°E
Report Text: UNKL 261000Z 00000MPS 9000 SKC M25/M29 Q1039 NOSIG RMK QFE75329////65
Loading
Personal Weather Stations






























Interactive Weather Map New forecast layout! Learn more

10-Day Weather Forecast

Advertisements
Track Severe Weather on mobile